Time;durP1;ratioP1;P1;durP2;ratioP2;P2;SDS_P1;SDS_P2;PMS_P1;PMS_P2;Temp;Humidity;BMP_temperature;BMP_pressure;BME280_temperature;BME280_humidity;BME280_pressure;Samples;Min_cycle;Max_cycle;Signal;HPM_P1;HPM_P2
2022/01/07 00:02:03;;;;;;;27.05;13.57;;;3.10;99.90;;;;;;5079864;27;20203;-67
2022/01/07 00:04:35;;;;;;;25.48;15.95;;;3.20;99.90;;;;;;5080369;28;20234;-67
2022/01/07 00:07:03;;;;;;;28.75;14.98;;;3.20;99.90;;;;;;5082353;28;20230;-67
2022/01/07 00:09:33;;;;;;;30.92;14.85;;;3.20;99.90;;;;;;5085312;28;20235;-68
2022/01/07 00:12:01;;;;;;;31.67;15.15;;;3.30;99.90;;;;;;5099411;28;20192;-66
2022/01/07 00:14:28;;;;;;;42.67;16.63;;;3.20;99.90;;;;;;5093584;28;20783;-68
2022/01/07 00:16:56;;;;;;;23.90;14.85;;;3.30;99.90;;;;;;5069034;28;20349;-68
2022/01/07 00:19:24;;;;;;;31.77;16.80;;;3.20;99.90;;;;;;5070720;28;20205;-68
2022/01/07 00:21:52;;;;;;;28.42;16.75;;;3.20;99.90;;;;;;5087519;28;20224;-68
2022/01/07 00:24:20;;;;;;;29.13;15.55;;;3.20;99.90;;;;;;5084598;28;20251;-69
2022/01/07 00:26:49;;;;;;;33.55;16.13;;;3.10;99.90;;;;;;5068388;28;20312;-69
2022/01/07 00:29:17;;;;;;;38.72;19.65;;;3.10;99.90;;;;;;5073954;28;20862;-69
2022/01/07 00:31:45;;;;;;;28.20;14.82;;;3.00;99.90;;;;;;5069397;28;20285;-68
2022/01/07 00:34:13;;;;;;;44.00;16.70;;;3.00;99.90;;;;;;5068667;28;20228;-68
2022/01/07 00:36:41;;;;;;;35.38;16.33;;;3.00;99.90;;;;;;5073355;28;20225;-69
2022/01/07 00:39:08;;;;;;;35.42;17.85;;;3.00;99.90;;;;;;5065007;28;20197;-69
2022/01/07 00:41:36;;;;;;;35.15;16.52;;;2.90;99.90;;;;;;5076666;28;20288;-68
2022/01/07 00:44:06;;;;;;;30.50;17.27;;;2.90;99.90;;;;;;5059037;28;20279;-69
2022/01/07 00:46:33;;;;;;;35.15;17.08;;;2.90;99.90;;;;;;5071399;28;20221;-66
2022/01/07 00:49:01;;;;;;;44.78;17.13;;;2.90;99.90;;;;;;5072553;28;20221;-69
2022/01/07 00:51:29;;;;;;;36.25;16.88;;;2.80;99.90;;;;;;5061691;28;20197;-68
2022/01/07 00:53:57;;;;;;;30.83;16.90;;;2.80;99.90;;;;;;5077878;28;20203;-67
2022/01/07 00:56:25;;;;;;;34.55;17.33;;;2.80;99.90;;;;;;5080471;28;20233;-68
2022/01/07 00:58:53;;;;;;;37.97;18.00;;;2.80;99.90;;;;;;5081745;28;20215;-69
2022/01/07 01:01:22;;;;;;;32.25;15.90;;;2.70;99.90;;;;;;5084670;28;20207;-66
2022/01/07 01:03:50;;;;;;;40.47;18.35;;;2.70;99.90;;;;;;5084487;28;20204;-68
2022/01/07 01:06:18;;;;;;;39.83;17.63;;;2.70;99.90;;;;;;5083572;28;20212;-68
2022/01/07 01:08:46;;;;;;;36.63;18.75;;;2.70;99.90;;;;;;5083058;28;20196;-67
2022/01/07 01:11:14;;;;;;;33.90;17.88;;;2.60;99.90;;;;;;5083671;28;20226;-68
2022/01/07 01:13:42;;;;;;;38.22;18.00;;;2.60;99.90;;;;;;5103974;28;20244;-67
2022/01/07 01:16:10;;;;;;;32.03;15.90;;;2.60;99.90;;;;;;5112740;28;20220;-66
2022/01/07 01:18:39;;;;;;;34.30;17.00;;;2.60;99.90;;;;;;5088386;28;20228;-67
2022/01/07 01:21:07;;;;;;;30.88;15.95;;;2.60;99.90;;;;;;5084894;28;20211;-68
2022/01/07 01:23:35;;;;;;;32.78;17.55;;;2.60;99.90;;;;;;5084023;28;20785;-66
2022/01/07 01:26:02;;;;;;;29.15;17.25;;;2.60;99.90;;;;;;5083395;28;20735;-66
2022/01/07 01:28:30;;;;;;;43.00;17.98;;;2.60;99.90;;;;;;5082427;28;20200;-66
2022/01/07 01:30:58;;;;;;;31.17;18.73;;;2.60;99.90;;;;;;5082081;28;20201;-66
2022/01/07 01:33:26;;;;;;;36.92;16.00;;;2.60;99.90;;;;;;5081419;28;20204;-67
2022/01/07 01:35:55;;;;;;;36.75;17.92;;;2.60;99.90;;;;;;5081453;28;20228;-68
2022/01/07 01:38:23;;;;;;;33.55;15.60;;;2.70;99.90;;;;;;5081829;27;20201;-68
2022/01/07 01:40:50;;;;;;;33.95;16.67;;;2.70;99.90;;;;;;5081546;28;20260;-68
2022/01/07 01:43:18;;;;;;;28.48;16.30;;;2.70;99.90;;;;;;5081140;28;20353;-67
2022/01/07 01:45:46;;;;;;;28.20;15.07;;;2.80;99.90;;;;;;5081123;28;20224;-68
2022/01/07 01:48:14;;;;;;;35.22;15.30;;;2.80;99.90;;;;;;5080896;28;20690;-69
2022/01/07 01:50:42;;;;;;;34.72;15.50;;;2.80;99.90;;;;;;5080950;28;20208;-70
2022/01/07 01:53:11;;;;;;;35.15;15.15;;;2.90;99.90;;;;;;5081138;28;20328;-69
2022/01/07 01:55:39;;;;;;;33.50;13.60;;;2.80;99.90;;;;;;5080735;28;20224;-69
2022/01/07 01:58:08;;;;;;;29.67;14.02;;;2.80;99.90;;;;;;5081444;28;20200;-70
2022/01/07 02:00:36;;;;;;;31.65;12.23;;;2.80;99.90;;;;;;5081075;28;20208;-69
2022/01/07 02:03:04;;;;;;;22.55;12.07;;;2.80;99.90;;;;;;5081247;28;20196;-68
2022/01/07 02:05:33;;;;;;;23.90;11.85;;;2.90;99.90;;;;;;5081240;28;20226;-68
2022/01/07 02:08:01;;;;;;;22.70;11.93;;;2.90;99.90;;;;;;5071303;28;20203;-67
2022/01/07 02:10:30;;;;;;;26.50;11.63;;;3.00;99.90;;;;;;5068663;28;20826;-68
2022/01/07 02:12:58;;;;;;;25.02;12.73;;;3.00;99.90;;;;;;5079953;28;20197;-67
2022/01/07 02:15:26;;;;;;;21.42;11.90;;;3.00;99.90;;;;;;5080498;28;20224;-67
2022/01/07 02:17:54;;;;;;;22.10;13.10;;;3.00;99.90;;;;;;5080553;28;20716;-69
2022/01/07 02:20:26;;;;;;;17.75;10.88;;;3.10;99.90;;;;;;5080345;28;20200;-68
2022/01/07 02:22:55;;;;;;;26.88;11.90;;;3.10;99.90;;;;;;5080662;28;20291;-68
2022/01/07 02:25:23;;;;;;;25.55;11.43;;;3.10;99.90;;;;;;5080238;28;20197;-67
2022/01/07 02:27:52;;;;;;;24.75;11.75;;;3.10;99.90;;;;;;5080396;28;20207;-66
2022/01/07 02:30:23;;;;;;;22.75;9.90;;;3.20;99.90;;;;;;5080884;28;20690;-67
2022/01/07 02:32:51;;;;;;;20.10;11.63;;;3.20;99.90;;;;;;5080210;28;20781;-66
2022/01/07 02:35:21;;;;;;;21.88;11.50;;;3.20;99.90;;;;;;5079656;28;20222;-66
2022/01/07 02:37:51;;;;;;;14.82;10.13;;;3.20;99.90;;;;;;5079679;28;20210;-66
2022/01/07 02:40:18;;;;;;;20.83;10.43;;;3.20;99.90;;;;;;5079708;28;20214;-67
2022/01/07 02:42:46;;;;;;;20.90;10.27;;;3.30;99.90;;;;;;5079504;28;20286;-68
2022/01/07 02:45:14;;;;;;;26.83;11.45;;;3.20;99.90;;;;;;5079581;28;20196;-68
2022/01/07 02:47:52;;;;;;;19.85;10.00;;;3.20;99.90;;;;;;5078860;28;20874;-68
2022/01/07 02:50:23;;;;;;;17.10;10.32;;;3.20;99.90;;;;;;5080078;28;20232;-68
2022/01/07 02:52:52;;;;;;;20.13;10.52;;;3.20;99.90;;;;;;5079571;28;20200;-67
2022/01/07 02:55:21;;;;;;;19.23;9.95;;;3.20;99.90;;;;;;5079032;28;20725;-67
2022/01/07 02:57:50;;;;;;;25.52;10.98;;;3.20;99.90;;;;;;5080066;28;20210;-68
2022/01/07 03:00:18;;;;;;;20.90;10.50;;;3.10;99.90;;;;;;5079392;28;20200;-68
2022/01/07 03:02:48;;;;;;;15.77;10.18;;;3.10;99.90;;;;;;5079035;28;20208;-68
2022/01/07 03:05:17;;;;;;;21.05;9.18;;;3.10;99.90;;;;;;5079511;28;20298;-68
2022/01/07 03:07:47;;;;;;;21.00;10.10;;;3.20;99.90;;;;;;5079435;28;20741;-68
2022/01/07 03:10:19;;;;;;;15.90;9.95;;;3.10;99.90;;;;;;5079220;28;20204;-68
2022/01/07 03:12:47;;;;;;;15.77;8.70;;;3.20;99.90;;;;;;5079686;28;20206;-68
2022/01/07 03:15:15;;;;;;;19.48;8.90;;;3.20;99.90;;;;;;5078876;28;20591;-67
2022/01/07 03:17:43;;;;;;;20.48;9.32;;;3.20;99.90;;;;;;5079220;28;20220;-68
2022/01/07 03:20:15;;;;;;;20.65;10.60;;;3.30;99.90;;;;;;5078752;28;20200;-66
2022/01/07 03:22:44;;;;;;;23.30;8.65;;;3.30;99.90;;;;;;5078868;28;20204;-68
2022/01/07 03:25:13;;;;;;;17.48;8.45;;;3.30;99.90;;;;;;5078780;28;20313;-68
2022/01/07 03:27:42;;;;;;;15.07;8.70;;;3.30;99.90;;;;;;5079974;28;20216;-67
2022/01/07 03:30:13;;;;;;;17.50;9.00;;;3.40;99.90;;;;;;5079677;28;20208;-68
2022/01/07 03:32:41;;;;;;;22.90;8.10;;;3.40;99.90;;;;;;5079868;28;20724;-66
2022/01/07 03:35:11;;;;;;;15.13;8.02;;;3.40;99.90;;;;;;5081705;28;20287;-67
2022/01/07 03:37:40;;;;;;;21.95;8.40;;;3.40;99.90;;;;;;5084980;28;20224;-68
2022/01/07 03:40:09;;;;;;;17.13;9.13;;;3.40;99.90;;;;;;5090397;28;20204;-68
2022/01/07 03:42:37;;;;;;;17.23;7.50;;;3.40;99.90;;;;;;5101062;28;20235;-68
2022/01/07 03:45:08;;;;;;;13.60;7.28;;;3.40;99.90;;;;;;5091570;28;20209;-65
2022/01/07 03:47:36;;;;;;;20.50;7.20;;;3.40;99.90;;;;;;5066450;28;20280;-68
2022/01/07 03:50:08;;;;;;;14.88;7.25;;;3.40;99.90;;;;;;5058543;28;20193;-69
2022/01/07 03:52:37;;;;;;;16.42;7.40;;;3.50;99.90;;;;;;5058526;28;20204;-70
2022/01/07 03:55:07;;;;;;;12.45;7.28;;;3.50;99.90;;;;;;5058410;28;20724;-68
2022/01/07 03:57:35;;;;;;;10.27;6.90;;;3.50;99.90;;;;;;5068008;28;20768;-67
2022/01/07 04:00:06;;;;;;;11.02;6.72;;;3.50;99.90;;;;;;5065991;28;20658;-69
2022/01/07 04:02:34;;;;;;;12.18;6.90;;;3.50;99.90;;;;;;5067552;28;20196;-67
2022/01/07 04:05:03;;;;;;;21.35;6.95;;;3.50;99.90;;;;;;5067885;28;20331;-68
2022/01/07 04:07:31;;;;;;;11.10;6.15;;;3.50;99.90;;;;;;5067952;28;20837;-67
2022/01/07 04:10:00;;;;;;;12.90;6.47;;;3.40;99.90;;;;;;5068250;28;20197;-66
2022/01/07 04:12:29;;;;;;;18.00;6.78;;;3.50;99.90;;;;;;5067575;28;20197;-67
2022/01/07 04:15:07;;;;;;;14.15;7.55;;;3.50;99.90;;;;;;5067108;28;20777;-67
2022/01/07 04:17:39;;;;;;;15.20;6.70;;;3.60;99.90;;;;;;5069986;28;20850;-69
2022/01/07 04:20:10;;;;;;;10.93;6.50;;;3.60;99.90;;;;;;5068975;28;20199;-69
2022/01/07 04:22:38;;;;;;;13.80;6.50;;;3.60;99.90;;;;;;5069409;28;20807;-69
2022/01/07 04:25:12;;;;;;;9.93;5.60;;;3.60;99.90;;;;;;5068718;28;20185;-68
2022/01/07 04:27:40;;;;;;;8.32;5.07;;;3.60;99.90;;;;;;5067567;28;20215;-69
2022/01/07 04:30:09;;;;;;;13.73;5.30;;;3.50;99.90;;;;;;5069178;28;20196;-67
2022/01/07 04:32:38;;;;;;;9.98;5.82;;;3.50;99.90;;;;;;5070791;28;20358;-68
2022/01/07 04:35:07;;;;;;;9.25;5.15;;;3.50;99.90;;;;;;5070247;28;20193;-69
2022/01/07 04:37:35;;;;;;;11.32;5.75;;;3.40;99.90;;;;;;5072249;28;20419;-67
2022/01/07 04:40:03;;;;;;;13.45;5.13;;;3.50;99.90;;;;;;5072697;28;20188;-67
2022/01/07 04:42:31;;;;;;;11.43;6.03;;;3.40;99.90;;;;;;5072728;28;20716;-67
2022/01/07 04:45:02;;;;;;;14.15;5.03;;;3.30;99.90;;;;;;5073164;28;20203;-69
2022/01/07 04:47:31;;;;;;;7.68;5.60;;;3.20;99.90;;;;;;5072493;28;20312;-67
2022/01/07 04:50:00;;;;;;;15.13;7.45;;;3.20;99.90;;;;;;5073151;28;20188;-68
2022/01/07 04:52:28;;;;;;;10.95;5.72;;;3.10;99.90;;;;;;5075565;28;20200;-68
2022/01/07 04:54:56;;;;;;;15.20;6.35;;;3.00;99.90;;;;;;5075173;28;20822;-68
2022/01/07 04:57:24;;;;;;;11.45;5.97;;;3.00;99.90;;;;;;5072921;28;20222;-69
2022/01/07 04:59:52;;;;;;;10.73;6.18;;;3.00;99.90;;;;;;5072592;28;20199;-69
2022/01/07 05:02:20;;;;;;;12.15;6.70;;;2.90;99.90;;;;;;5062200;28;20224;-70
2022/01/07 05:04:48;;;;;;;21.05;7.78;;;2.90;99.90;;;;;;5061447;28;20672;-67
2022/01/07 05:07:17;;;;;;;10.82;6.65;;;3.00;99.90;;;;;;5060898;28;20455;-67
2022/01/07 05:09:45;;;;;;;14.77;6.88;;;3.00;99.90;;;;;;5060846;28;20687;-68
2022/01/07 05:12:13;;;;;;;14.30;7.00;;;3.00;99.90;;;;;;5061102;28;20780;-68
2022/01/07 05:14:41;;;;;;;20.25;8.27;;;3.00;99.90;;;;;;5060628;28;20193;-69
2022/01/07 05:17:09;;;;;;;9.68;6.45;;;3.00;99.90;;;;;;5061128;28;20248;-68
2022/01/07 05:19:36;;;;;;;16.27;7.50;;;3.10;99.90;;;;;;5060818;28;20193;-68
2022/01/07 05:22:05;;;;;;;16.73;7.88;;;3.10;99.90;;;;;;5061120;28;20885;-68
2022/01/07 05:24:34;;;;;;;10.52;6.65;;;3.10;99.90;;;;;;5061135;28;20197;-69
2022/01/07 05:27:02;;;;;;;14.20;7.13;;;3.00;99.90;;;;;;5060847;28;20221;-69
2022/01/07 05:29:33;;;;;;;16.15;7.72;;;3.10;99.90;;;;;;5061346;28;20197;-69
2022/01/07 05:32:01;;;;;;;16.92;8.55;;;3.10;99.90;;;;;;5064861;28;20200;-71
2022/01/07 05:34:29;;;;;;;20.15;8.18;;;3.10;99.90;;;;;;5061187;28;20208;-69
2022/01/07 05:36:57;;;;;;;12.77;7.75;;;3.00;99.90;;;;;;5060672;28;20216;-66
2022/01/07 05:39:26;;;;;;;13.70;8.20;;;3.00;99.90;;;;;;5060813;28;20196;-67
2022/01/07 05:41:55;;;;;;;14.90;7.72;;;3.00;99.90;;;;;;5061132;28;20205;-68
2022/01/07 05:44:23;;;;;;;12.43;9.18;;;3.00;99.90;;;;;;5060741;28;20204;-67
2022/01/07 05:46:51;;;;;;;16.15;7.60;;;3.00;99.90;;;;;;5074055;28;20299;-68
2022/01/07 05:49:18;;;;;;;14.52;7.70;;;3.00;99.90;;;;;;5081198;28;20262;-67
2022/01/07 05:51:46;;;;;;;14.05;7.22;;;3.00;99.90;;;;;;5081285;28;20201;-67
2022/01/07 05:54:14;;;;;;;13.68;7.25;;;3.00;99.90;;;;;;5081160;28;20215;-68
2022/01/07 05:56:42;;;;;;;15.88;7.25;;;3.00;99.90;;;;;;5081617;28;20299;-68
2022/01/07 05:59:11;;;;;;;19.08;8.13;;;3.00;99.90;;;;;;5081606;28;20228;-68
2022/01/07 06:01:39;;;;;;;10.45;7.40;;;3.00;99.90;;;;;;5082142;28;20208;-68
2022/01/07 06:04:07;;;;;;;17.05;7.45;;;3.00;99.90;;;;;;5082139;28;20239;-69
2022/01/07 06:06:35;;;;;;;11.48;8.05;;;3.00;99.90;;;;;;5082324;28;20224;-68
2022/01/07 06:09:03;;;;;;;17.73;7.47;;;3.00;99.90;;;;;;5098763;28;20335;-68
2022/01/07 06:11:31;;;;;;;13.00;7.90;;;2.90;99.90;;;;;;5104741;28;20255;-67
2022/01/07 06:13:58;;;;;;;14.93;7.00;;;2.90;99.90;;;;;;5083316;28;20287;-67
2022/01/07 06:16:28;;;;;;;11.38;7.90;;;2.90;99.90;;;;;;5082257;28;20295;-70
2022/01/07 06:18:56;;;;;;;10.15;6.68;;;3.00;99.90;;;;;;5082390;28;20235;-65
2022/01/07 06:21:25;;;;;;;14.68;7.28;;;3.10;99.90;;;;;;5083886;28;20200;-66
2022/01/07 06:23:53;;;;;;;14.60;8.48;;;3.10;99.90;;;;;;5084112;28;20199;-66
2022/01/07 06:26:21;;;;;;;11.43;7.10;;;3.10;99.90;;;;;;5080820;28;20311;-67
2022/01/07 06:28:49;;;;;;;13.77;6.93;;;3.20;99.90;;;;;;5062415;28;20228;-70
2022/01/07 06:31:16;;;;;;;14.52;7.95;;;3.10;99.90;;;;;;5062633;28;20205;-68
2022/01/07 06:33:46;;;;;;;11.43;8.10;;;3.10;99.90;;;;;;5061950;28;20291;-69
2022/01/07 06:36:14;;;;;;;11.20;6.70;;;3.10;99.90;;;;;;5061099;28;20616;-69
2022/01/07 06:38:41;;;;;;;10.60;7.18;;;3.10;99.90;;;;;;5061137;28;20323;-68
2022/01/07 06:41:09;;;;;;;12.13;7.68;;;3.10;99.90;;;;;;5060463;28;20208;-69
2022/01/07 06:43:37;;;;;;;16.40;7.50;;;3.10;99.90;;;;;;5064406;28;20348;-68
2022/01/07 06:46:05;;;;;;;12.57;7.22;;;3.10;99.90;;;;;;5065021;28;20327;-69
2022/01/07 06:48:34;;;;;;;12.98;8.00;;;3.00;99.90;;;;;;5064686;28;20679;-69
2022/01/07 06:51:03;;;;;;;11.13;7.60;;;3.00;99.90;;;;;;5065757;28;20219;-70
2022/01/07 06:53:31;;;;;;;12.45;7.80;;;3.00;99.90;;;;;;5071081;28;20197;-68
2022/01/07 06:55:59;;;;;;;18.80;8.18;;;3.10;99.90;;;;;;5075017;28;20223;-69
2022/01/07 06:58:27;;;;;;;12.05;7.68;;;3.10;99.90;;;;;;5066585;28;20594;-69
2022/01/07 07:00:55;;;;;;;11.25;7.80;;;3.10;99.90;;;;;;5061785;28;20205;-69
2022/01/07 07:03:24;;;;;;;12.05;7.60;;;3.10;99.90;;;;;;5060938;28;20246;-69
2022/01/07 07:05:51;;;;;;;13.75;7.70;;;3.20;99.90;;;;;;5061039;28;20304;-69
2022/01/07 07:08:21;;;;;;;12.90;6.90;;;3.20;99.90;;;;;;5061400;28;20272;-69
2022/01/07 07:10:49;;;;;;;8.50;7.32;;;3.30;99.90;;;;;;5060609;28;20201;-69
2022/01/07 07:13:17;;;;;;;14.50;8.50;;;3.30;99.90;;;;;;5061297;28;20229;-68
2022/01/07 07:15:45;;;;;;;12.50;6.75;;;3.30;99.90;;;;;;5063635;28;20224;-68
2022/01/07 07:18:14;;;;;;;10.73;7.25;;;3.30;99.90;;;;;;5068817;28;20209;-69
2022/01/07 07:20:42;;;;;;;8.82;6.28;;;3.30;99.90;;;;;;5068809;28;20489;-67
2022/01/07 07:23:12;;;;;;;10.55;7.53;;;3.30;99.90;;;;;;5070547;28;20280;-67
2022/01/07 07:25:41;;;;;;;13.07;6.60;;;3.30;99.90;;;;;;5068219;28;20311;-67
2022/01/07 07:28:09;;;;;;;10.93;6.75;;;3.20;99.90;;;;;;5068607;28;20207;-69
2022/01/07 07:30:40;;;;;;;8.15;6.82;;;3.20;99.90;;;;;;5069551;28;20203;-68
2022/01/07 07:33:30;;;;;;;11.93;7.50;;;3.20;99.90;;;;;;5069420;28;20204;-68
2022/01/07 07:38:46;;;;;;;9.70;7.30;;;3.20;99.90;;;;;;5068810;28;20534;-68
2022/01/07 07:41:15;;;;;;;7.47;6.10;;;3.30;99.90;;;;;;5065892;28;20281;-68
2022/01/07 07:43:44;;;;;;;7.88;6.40;;;3.40;99.90;;;;;;5058456;28;20603;-69
2022/01/07 07:46:12;;;;;;;9.60;7.13;;;3.40;99.90;;;;;;5058511;28;20653;-69
2022/01/07 07:48:40;;;;;;;9.20;6.80;;;3.40;99.90;;;;;;5058979;28;20469;-69
2022/01/07 07:51:08;;;;;;;8.65;7.25;;;3.30;99.90;;;;;;5058804;28;20215;-69
2022/01/07 07:53:36;;;;;;;17.00;7.78;;;3.30;99.90;;;;;;5058521;28;20201;-69
2022/01/07 07:56:04;;;;;;;8.73;6.78;;;3.40;99.90;;;;;;5058992;28;20236;-68
2022/01/07 07:58:34;;;;;;;12.15;7.07;;;3.40;99.90;;;;;;5059204;28;20227;-68
2022/01/07 08:01:02;;;;;;;11.60;8.95;;;3.30;99.90;;;;;;5058865;28;20809;-67
2022/01/07 08:03:30;;;;;;;12.65;8.27;;;3.40;99.90;;;;;;5058895;28;20212;-65
2022/01/07 08:05:58;;;;;;;9.02;7.93;;;3.50;99.90;;;;;;5058882;28;20231;-70
2022/01/07 08:08:28;;;;;;;11.68;8.57;;;3.30;99.90;;;;;;5059144;28;20200;-67
2022/01/07 08:10:59;;;;;;;12.27;8.00;;;3.20;99.90;;;;;;5057675;28;20211;-67
2022/01/07 08:13:30;;;;;;;11.23;7.40;;;3.20;99.90;;;;;;5058273;28;20219;-66
2022/01/07 08:16:00;;;;;;;10.98;8.20;;;3.20;99.90;;;;;;5058523;28;20885;-66
2022/01/07 08:18:30;;;;;;;11.65;8.30;;;3.10;99.90;;;;;;5058567;28;20266;-67
2022/01/07 08:21:01;;;;;;;10.45;8.13;;;3.20;99.90;;;;;;5058708;28;20285;-67
2022/01/07 08:23:29;;;;;;;12.75;8.50;;;3.10;99.90;;;;;;5059098;28;20205;-66
2022/01/07 08:25:56;;;;;;;16.50;9.35;;;3.10;99.90;;;;;;5058255;28;20761;-67
2022/01/07 08:28:27;;;;;;;12.45;8.40;;;3.10;99.90;;;;;;5059807;28;20296;-66
2022/01/07 08:31:22;;;;;;;12.40;8.00;;;3.20;99.90;;;;;;5073036;28;20218;-71
2022/01/07 08:36:38;;;;;;;12.73;8.63;;;3.10;99.90;;;;;;5072693;28;20287;-70
2022/01/07 08:39:08;;;;;;;10.88;8.43;;;3.10;99.90;;;;;;5105105;28;20235;-70
2022/01/07 08:41:36;;;;;;;14.32;8.88;;;3.10;99.90;;;;;;5095464;28;20196;-70
2022/01/07 08:44:05;;;;;;;12.23;8.30;;;3.20;99.90;;;;;;5080457;28;20653;-68
2022/01/07 08:46:33;;;;;;;13.73;8.48;;;3.20;99.90;;;;;;5074928;28;20277;-68
2022/01/07 08:49:04;;;;;;;11.98;8.02;;;3.20;99.90;;;;;;5083164;28;20205;-68
2022/01/07 08:51:33;;;;;;;12.90;8.40;;;3.20;99.90;;;;;;5084511;28;20272;-68
2022/01/07 08:54:01;;;;;;;11.18;8.27;;;3.20;99.90;;;;;;5082756;28;20189;-68
2022/01/07 08:56:29;;;;;;;8.52;7.57;;;3.10;99.90;;;;;;5081807;28;20250;-72
2022/01/07 08:58:58;;;;;;;9.10;7.60;;;3.10;99.90;;;;;;5081175;28;20733;-74
2022/01/07 09:01:28;;;;;;;9.13;8.23;;;3.20;99.90;;;;;;5079002;28;20921;-69
2022/01/07 09:03:57;;;;;;;7.38;6.68;;;3.30;99.90;;;;;;5080328;28;20211;-69
2022/01/07 09:06:26;;;;;;;13.18;7.85;;;3.30;99.90;;;;;;5077670;28;20311;-70
2022/01/07 09:08:54;;;;;;;9.05;7.93;;;3.30;99.90;;;;;;5078401;28;20203;-72
2022/01/07 09:11:21;;;;;;;10.32;6.90;;;3.30;99.90;;;;;;5077670;28;20231;-71
2022/01/07 09:13:51;;;;;;;7.88;7.10;;;3.30;99.90;;;;;;5077332;28;20200;-71
2022/01/07 09:16:22;;;;;;;7.30;6.35;;;3.30;99.90;;;;;;5078668;28;20216;-67
2022/01/07 09:18:50;;;;;;;8.40;7.40;;;3.20;99.90;;;;;;5078686;28;20708;-68
2022/01/07 09:21:19;;;;;;;10.15;7.68;;;3.20;99.90;;;;;;5078725;28;20445;-68
2022/01/07 09:23:48;;;;;;;8.05;6.90;;;3.20;99.90;;;;;;5080788;28;20686;-72
2022/01/07 09:26:16;;;;;;;9.93;7.90;;;3.30;99.90;;;;;;5080902;28;20217;-69
2022/01/07 09:28:44;;;;;;;8.63;7.50;;;3.30;99.90;;;;;;5081311;28;20211;-67
2022/01/07 09:31:14;;;;;;;9.32;8.32;;;3.20;99.90;;;;;;5081008;28;20214;-68
2022/01/07 09:33:42;;;;;;;9.85;8.95;;;3.30;99.90;;;;;;5081191;28;20201;-73
2022/01/07 09:36:30;;;;;;;8.73;7.32;;;3.30;99.90;;;;;;5074848;28;20217;-70
2022/01/07 09:38:59;;;;;;;11.13;8.48;;;3.20;99.90;;;;;;5076339;28;20203;-67
2022/01/07 09:41:27;;;;;;;9.15;8.25;;;3.20;99.90;;;;;;5081202;28;20200;-69
2022/01/07 09:43:55;;;;;;;8.68;7.75;;;3.20;99.90;;;;;;5080642;28;20200;-69
2022/01/07 09:46:23;;;;;;;9.30;7.90;;;3.20;99.90;;;;;;5070483;28;20243;-70
2022/01/07 09:48:51;;;;;;;8.95;7.65;;;3.20;99.90;;;;;;5070993;28;20284;-68
2022/01/07 09:51:19;;;;;;;10.90;7.78;;;3.20;99.90;;;;;;5061565;28;20659;-71
2022/01/07 09:53:47;;;;;;;9.18;8.25;;;3.10;99.90;;;;;;5060108;28;20204;-72
2022/01/07 09:56:19;;;;;;;8.60;7.78;;;3.10;99.90;;;;;;5060461;28;20340;-69
2022/01/07 09:58:47;;;;;;;11.13;8.77;;;3.10;99.90;;;;;;5060358;28;20204;-72
2022/01/07 10:01:19;;;;;;;12.27;9.02;;;3.10;99.90;;;;;;5062411;28;20216;-69
2022/01/07 10:03:50;;;;;;;10.20;8.38;;;3.10;99.90;;;;;;5061797;28;20205;-68
2022/01/07 10:06:21;;;;;;;11.38;8.70;;;3.20;99.90;;;;;;5061078;28;20561;-67
2022/01/07 10:09:05;;;;;;;11.82;9.13;;;3.20;99.90;;;;;;5060928;28;20293;-67
2022/01/07 10:11:35;;;;;;;10.50;8.77;;;3.20;99.90;;;;;;5061131;28;20421;-67
2022/01/07 10:14:18;;;;;;;10.50;9.35;;;3.30;99.90;;;;;;5061739;28;20788;-69
2022/01/07 10:16:52;;;;;;;11.00;9.50;;;3.30;99.90;;;;;;5059242;28;20307;-70
2022/01/07 10:19:46;;;;;;;10.45;9.40;;;3.30;99.90;;;;;;5061602;28;20201;-70
2022/01/07 10:22:16;;;;;;;10.07;8.85;;;3.40;99.90;;;;;;5050151;28;20197;-70
2022/01/07 10:24:55;;;;;;;12.65;9.43;;;3.40;99.90;;;;;;5067664;28;20184;-68
2022/01/07 10:27:27;;;;;;;11.02;9.85;;;3.30;99.90;;;;;;5071021;28;20243;-68
2022/01/07 10:29:55;;;;;;;10.82;9.48;;;3.30;99.90;;;;;;5074065;28;20401;-68
2022/01/07 10:32:29;;;;;;;11.95;10.10;;;3.30;99.90;;;;;;5070422;28;20198;-67
2022/01/07 10:35:09;;;;;;;13.27;10.00;;;3.20;99.90;;;;;;5070519;28;20278;-68
2022/01/07 10:37:46;;;;;;;13.82;10.18;;;3.20;99.90;;;;;;5071322;28;20931;-70
2022/01/07 10:40:29;;;;;;;12.32;11.02;;;3.30;99.90;;;;;;5073385;28;20220;-71
2022/01/07 10:43:09;;;;;;;12.10;10.38;;;3.30;99.90;;;;;;5070843;28;20664;-70
2022/01/07 10:45:37;;;;;;;11.02;9.82;;;3.40;99.90;;;;;;5071286;28;20295;-72
2022/01/07 10:48:06;;;;;;;14.38;10.27;;;3.30;99.90;;;;;;5071502;28;20393;-71
2022/01/07 10:50:38;;;;;;;14.13;11.05;;;3.40;99.90;;;;;;5068086;28;20292;-71
2022/01/07 10:53:27;;;;;;;15.30;11.00;;;3.40;99.90;;;;;;5072214;28;20450;-71
2022/01/07 10:56:07;;;;;;;15.60;11.48;;;3.40;99.90;;;;;;5063516;28;20296;-72
2022/01/07 10:59:07;;;;;;;12.00;10.20;;;3.40;99.90;;;;;;5065553;28;20458;-72
2022/01/07 11:01:41;;;;;;;13.50;11.77;;;3.50;99.90;;;;;;5063252;28;20221;-70
2022/01/07 11:04:13;;;;;;;14.27;11.32;;;3.50;99.90;;;;;;5062776;28;20718;-70
2022/01/07 11:06:42;;;;;;;12.68;10.90;;;3.50;99.90;;;;;;5062977;28;20867;-70
2022/01/07 11:09:12;;;;;;;14.65;13.05;;;3.50;99.90;;;;;;5078295;28;20287;-71
2022/01/07 11:11:53;;;;;;;15.85;12.18;;;3.70;99.90;;;;;;5094005;28;20313;-70
2022/01/07 11:14:26;;;;;;;12.32;11.02;;;3.70;99.90;;;;;;5070679;28;20445;-70
2022/01/07 11:16:55;;;;;;;15.35;11.98;;;3.70;99.90;;;;;;5063417;28;20321;-72
2022/01/07 11:19:31;;;;;;;15.75;12.05;;;3.70;99.90;;;;;;5059960;28;20187;-71
2022/01/07 11:22:00;;;;;;;16.42;12.70;;;3.80;99.90;;;;;;5059923;28;20282;-73
2022/01/07 11:24:37;;;;;;;16.08;13.00;;;3.80;99.90;;;;;;5059822;28;20361;-72
2022/01/07 11:27:07;;;;;;;16.95;13.05;;;3.90;99.90;;;;;;5060614;28;20311;-73
2022/01/07 11:29:41;;;;;;;18.10;13.10;;;3.80;99.90;;;;;;5059348;28;20203;-73
2022/01/07 11:32:37;;;;;;;18.55;14.52;;;3.90;99.90;;;;;;5059911;28;20189;-72
2022/01/07 11:35:44;;;;;;;18.50;14.05;;;3.90;99.90;;;;;;5070118;28;20196;-70
2022/01/07 11:38:40;;;;;;;18.77;13.93;;;3.90;99.90;;;;;;5008282;28;20630;-72
2022/01/07 11:41:41;;;;;;;16.95;13.15;;;4.00;99.90;;;;;;5068551;28;20217;-75
2022/01/07 11:44:16;;;;;;;19.42;12.88;;;3.90;99.90;;;;;;5070792;28;20197;-73
2022/01/07 11:46:45;;;;;;;22.42;14.27;;;4.00;99.90;;;;;;5069731;28;20990;-73
2022/01/07 11:49:35;;;;;;;18.35;14.20;;;4.10;99.90;;;;;;5072647;28;20200;-73
2022/01/07 11:52:30;;;;;;;23.45;14.15;;;4.10;99.90;;;;;;5061469;28;20239;-74
2022/01/07 11:55:27;;;;;;;17.10;14.50;;;4.10;99.90;;;;;;5062339;28;20207;-72
2022/01/07 11:57:57;;;;;;;21.20;15.73;;;4.00;99.90;;;;;;5026807;28;20201;-73
2022/01/07 12:00:56;;;;;;;22.52;16.15;;;4.00;99.90;;;;;;5062022;28;20248;-75
2022/01/07 12:03:38;;;;;;;17.35;15.48;;;4.10;99.90;;;;;;5061403;28;20292;-69
2022/01/07 12:06:46;;;;;;;20.95;16.67;;;4.00;99.90;;;;;;5062907;28;20314;-71
2022/01/07 12:09:25;;;;;;;22.20;16.05;;;4.10;99.90;;;;;;5061577;28;20205;-69
2022/01/07 12:11:57;;;;;;;21.38;16.13;;;4.10;99.90;;;;;;5061008;28;20829;-70
2022/01/07 12:14:27;;;;;;;22.67;16.77;;;4.10;99.90;;;;;;5061857;28;20288;-72
2022/01/07 12:16:59;;;;;;;25.50;17.50;;;4.20;99.90;;;;;;5061541;28;20304;-72
2022/01/07 12:20:19;;;;;;;22.65;17.42;;;4.30;99.90;;;;;;5061933;28;20249;-71
2022/01/07 12:22:50;;;;;;;24.65;17.50;;;4.40;99.90;;;;;;5070845;28;20229;-73
2022/01/07 12:25:19;;;;;;;23.77;17.95;;;4.40;99.90;;;;;;5060890;28;20235;-74
2022/01/07 12:28:00;;;;;;;25.65;17.85;;;4.50;99.90;;;;;;5060107;28;20776;-74
2022/01/07 12:30:28;;;;;;;27.13;17.40;;;4.60;99.90;;;;;;5062256;28;20821;-73
2022/01/07 12:33:00;;;;;;;28.25;16.95;;;4.70;99.90;;;;;;5060502;28;20702;-69
2022/01/07 12:35:30;;;;;;;25.35;17.23;;;4.80;99.90;;;;;;5059520;28;20211;-68
2022/01/07 12:38:00;;;;;;;27.77;18.60;;;4.80;99.90;;;;;;5061053;28;20706;-69
2022/01/07 12:40:28;;;;;;;23.40;16.92;;;4.70;99.90;;;;;;5059956;28;20277;-70
2022/01/07 12:42:55;;;;;;;26.77;16.63;;;4.70;99.90;;;;;;5059547;28;20208;-73
2022/01/07 12:45:23;;;;;;;22.63;16.23;;;4.70;99.90;;;;;;5059776;28;20213;-72
2022/01/07 12:47:54;;;;;;;23.30;16.00;;;4.80;99.90;;;;;;5060120;28;20207;-70
2022/01/07 12:50:23;;;;;;;23.52;15.93;;;4.70;99.90;;;;;;5077948;28;20219;-72
2022/01/07 12:52:51;;;;;;;27.50;16.08;;;4.70;99.90;;;;;;5092576;28;20394;-72
2022/01/07 12:55:22;;;;;;;19.67;15.15;;;4.80;99.90;;;;;;5084680;28;20204;-72
2022/01/07 12:57:52;;;;;;;22.50;16.15;;;4.90;99.90;;;;;;5084514;28;20435;-72
2022/01/07 13:00:23;;;;;;;27.80;20.42;;;5.00;99.90;;;;;;5088910;28;20196;-65
2022/01/07 13:02:54;;;;;;;26.60;17.52;;;5.00;99.90;;;;;;5094133;28;20223;-65
2022/01/07 13:05:25;;;;;;;21.08;16.75;;;5.20;99.90;;;;;;5093146;28;20261;-66
2022/01/07 13:07:55;;;;;;;21.75;15.60;;;5.40;99.90;;;;;;5091304;28;20224;-67